createdAt,value
2018-09-06T00:01:46.060Z,93.80
2018-09-06T00:04:16.158Z,93.50
2018-09-06T00:06:46.245Z,93.50
2018-09-06T00:09:16.334Z,93.60
2018-09-06T00:11:46.437Z,93.40
2018-09-06T00:14:16.521Z,93.60
2018-09-06T00:16:46.689Z,93.70
2018-09-06T00:19:16.785Z,93.60
2018-09-06T00:21:46.904Z,93.70
2018-09-06T00:24:17.028Z,93.60
2018-09-06T00:26:47.428Z,93.80
2018-09-06T00:29:17.539Z,93.60
2018-09-06T00:31:47.593Z,93.60
2018-09-06T00:34:17.721Z,93.70
2018-09-06T00:36:47.789Z,93.80
2018-09-06T00:39:17.905Z,93.60
2018-09-06T00:41:48.005Z,93.90
2018-09-06T00:44:18.073Z,93.60
2018-09-06T00:46:48.234Z,93.70
2018-09-06T00:49:18.376Z,93.70
2018-09-06T00:51:48.512Z,93.70
2018-09-06T00:54:18.569Z,93.70
2018-09-06T00:56:48.615Z,93.60
2018-09-06T00:59:22.882Z,93.70
2018-09-06T01:01:53.744Z,93.50
2018-09-06T01:04:23.832Z,93.50
2018-09-06T01:06:54.172Z,93.70
2018-09-06T01:09:24.289Z,93.50
2018-09-06T01:11:54.721Z,93.60
2018-09-06T01:14:24.780Z,93.50
2018-09-06T01:16:54.918Z,93.50
2018-09-06T01:19:25.320Z,93.40
2018-09-06T01:21:56.232Z,93.70
2018-09-06T01:24:26.340Z,93.70
2018-09-06T01:26:56.448Z,93.50
2018-09-06T01:29:26.501Z,93.40
2018-09-06T01:31:57.532Z,93.60
2018-09-06T01:34:27.585Z,93.50
2018-09-06T01:36:57.712Z,93.60
2018-09-06T01:39:27.828Z,93.70
2018-09-06T01:41:57.892Z,93.60
2018-09-06T01:44:28.001Z,93.60
2018-09-06T01:46:58.056Z,93.80
2018-09-06T01:49:28.288Z,93.50
2018-09-06T01:51:58.375Z,93.40
2018-09-06T01:54:28.508Z,93.30
2018-09-06T01:56:58.817Z,93.30
2018-09-06T01:59:34.148Z,93.30
2018-09-06T02:02:04.280Z,93.40
2018-09-06T02:04:34.300Z,93.20
2018-09-06T02:07:04.445Z,93.30
2018-09-06T02:09:34.539Z,93.40
2018-09-06T02:12:04.800Z,93.30
2018-09-06T02:14:34.845Z,93.40
2018-09-06T02:17:05.900Z,93.60
2018-09-06T02:19:35.972Z,93.50
2018-09-06T02:24:45.082Z,93.70
2018-09-06T02:27:15.173Z,94.00
2018-09-06T02:29:45.237Z,93.60
2018-09-06T02:32:15.287Z,93.70
2018-09-06T02:34:45.441Z,93.70
2018-09-06T02:37:15.462Z,93.80
2018-09-06T02:39:45.557Z,93.80
2018-09-06T02:42:15.632Z,94.10
2018-09-06T02:44:45.752Z,94.20
2018-09-06T02:47:15.854Z,94.20
2018-09-06T02:49:51.284Z,94.10
2018-09-06T02:52:21.312Z,93.90
2018-09-06T02:54:51.416Z,94.30
2018-09-06T02:57:21.481Z,94.00
2018-09-06T02:59:51.608Z,94.10
2018-09-06T03:02:21.661Z,94.20
2018-09-06T03:04:52.148Z,94.30
2018-09-06T03:07:22.229Z,93.90
2018-09-06T03:09:52.304Z,94.00
2018-09-06T03:12:22.498Z,94.10
2018-09-06T03:14:52.592Z,94.20
2018-09-06T03:17:22.656Z,94.30
2018-09-06T03:19:52.728Z,94.20
2018-09-06T03:22:22.821Z,94.20
2018-09-06T03:24:53.604Z,94.40
2018-09-06T03:27:24.188Z,94.40
2018-09-06T03:29:54.270Z,94.70
2018-09-06T03:32:24.387Z,94.70
2018-09-06T03:34:54.476Z,94.60
2018-09-06T03:37:24.713Z,94.50
2018-09-06T03:39:54.884Z,94.50
2018-09-06T03:42:25.042Z,94.40
2018-09-06T03:44:55.704Z,94.50
2018-09-06T03:47:26.428Z,94.40
2018-09-06T03:49:57.392Z,94.30
2018-09-06T03:52:27.508Z,94.30
2018-09-06T03:54:57.936Z,94.20
2018-09-06T03:57:29.636Z,94.40
2018-09-06T03:59:59.775Z,94.60
2018-09-06T04:02:30.601Z,94.30
2018-09-06T04:05:01.126Z,94.20
2018-09-06T04:07:31.843Z,94.30
2018-09-06T04:10:01.975Z,94.40
2018-09-06T04:12:32.128Z,94.50
2018-09-06T04:15:02.428Z,94.50
2018-09-06T04:17:33.176Z,94.40
2018-09-06T04:20:03.339Z,94.40
2018-09-06T04:22:33.434Z,94.40
2018-09-06T04:25:03.570Z,94.60
2018-09-06T04:27:34.280Z,94.60
2018-09-06T04:30:05.060Z,94.50
2018-09-06T04:32:35.765Z,94.40
2018-09-06T04:35:06.157Z,94.60
2018-09-06T04:37:36.272Z,94.50
2018-09-06T04:40:06.541Z,94.50
2018-09-06T04:42:36.816Z,94.50
2018-09-06T04:45:07.029Z,94.50
2018-09-06T04:47:37.149Z,94.60
2018-09-06T04:50:07.904Z,94.60
2018-09-06T04:52:38.616Z,94.70
2018-09-06T04:55:08.796Z,94.80
2018-09-06T04:57:38.862Z,95.00
2018-09-06T05:00:09.041Z,94.90
2018-09-06T05:02:40.162Z,94.80
2018-09-06T05:05:11.085Z,95.00
2018-09-06T05:07:41.269Z,94.90
2018-09-06T05:10:12.167Z,94.90
2018-09-06T05:12:42.428Z,95.00
2018-09-06T05:15:13.416Z,95.10
2018-09-06T05:17:43.586Z,95.10
2018-09-06T05:20:14.220Z,95.10
2018-09-06T05:22:44.422Z,95.10
2018-09-06T05:25:15.144Z,94.90
2018-09-06T05:27:45.248Z,94.80
2018-09-06T05:30:15.978Z,95.00
2018-09-06T05:32:46.732Z,94.90
2018-09-06T05:35:17.393Z,95.00
2018-09-06T05:37:48.080Z,95.00
2018-09-06T05:40:18.816Z,95.00
2018-09-06T05:42:48.952Z,95.20
2018-09-06T05:45:19.557Z,94.90
2018-09-06T05:47:55.184Z,95.20
2018-09-06T05:50:25.704Z,94.80
2018-09-06T05:52:55.852Z,94.80
2018-09-06T05:55:27.656Z,94.60
2018-09-06T05:57:57.840Z,94.70
2018-09-06T06:00:33.296Z,94.70
2018-09-06T06:03:05.477Z,94.70
2018-09-06T06:05:35.668Z,94.70
2018-09-06T06:08:17.137Z,94.70
2018-09-06T06:10:47.936Z,94.50
2018-09-06T06:13:18.128Z,94.60
2018-09-06T06:15:48.375Z,94.50
2018-09-06T06:18:20.769Z,94.50
2018-09-06T06:20:50.958Z,94.30
2018-09-06T06:23:21.104Z,94.30
2018-09-06T06:25:52.494Z,94.30
2018-09-06T06:28:22.664Z,94.60
2018-09-06T06:30:52.766Z,94.50
2018-09-06T06:33:23.536Z,94.80
2018-09-06T06:35:54.364Z,94.60
2018-09-06T06:38:24.533Z,94.60
2018-09-06T06:40:54.724Z,94.40
2018-09-06T06:43:24.823Z,94.50
2018-09-06T06:45:54.968Z,94.60
2018-09-06T06:48:25.061Z,95.00
2018-09-06T06:50:56.866Z,94.90
2018-09-06T06:53:27.075Z,94.80
2018-09-06T06:55:57.234Z,94.90
2018-09-06T06:58:27.368Z,94.70
2018-09-06T07:00:57.529Z,94.70
2018-09-06T07:03:27.620Z,94.70
2018-09-06T07:05:57.800Z,94.60
2018-09-06T07:08:28.468Z,94.70
2018-09-06T07:10:59.144Z,94.60
2018-09-06T07:13:30.056Z,94.30
2018-09-06T07:16:00.268Z,94.40
2018-09-06T07:18:30.540Z,93.90
2018-09-06T07:21:01.628Z,94.10
2018-09-06T07:23:33.193Z,93.90
2018-09-06T07:26:03.292Z,93.90
2018-09-06T07:28:33.440Z,94.00
2018-09-06T07:31:03.536Z,93.80
2018-09-06T07:33:33.688Z,93.80
2018-09-06T07:36:03.824Z,93.90
2018-09-06T07:38:34.013Z,93.90
2018-09-06T07:41:04.142Z,93.80
2018-09-06T07:43:35.292Z,93.50
2018-09-06T07:46:05.425Z,93.70
2018-09-06T07:48:35.592Z,93.90
2018-09-06T07:51:05.947Z,93.80
2018-09-06T07:53:36.792Z,93.90
2018-09-06T07:56:08.275Z,93.60
2018-09-06T07:58:38.358Z,93.20
2018-09-06T08:01:08.561Z,93.20
2018-09-06T08:03:38.788Z,93.10
2018-09-06T08:06:08.964Z,93.30
2018-09-06T08:08:39.579Z,92.70
2018-09-06T08:11:09.758Z,92.70
2018-09-06T08:13:41.085Z,93.00
2018-09-06T08:16:11.731Z,92.40
2018-09-06T08:18:41.885Z,92.10
2018-09-06T08:21:12.093Z,91.90
2018-09-06T08:23:42.233Z,92.30
2018-09-06T08:26:13.062Z,92.00
2018-09-06T08:28:43.770Z,92.10
2018-09-06T08:31:14.003Z,92.30
2018-09-06T08:33:44.040Z,91.30
2018-09-06T08:36:15.836Z,91.60
2018-09-06T08:38:45.965Z,91.50
2018-09-06T08:41:16.864Z,90.80
2018-09-06T08:43:47.024Z,91.30
2018-09-06T08:46:17.777Z,91.00
2018-09-06T08:48:48.086Z,90.90
2018-09-06T08:51:18.450Z,90.50
2018-09-06T08:53:49.664Z,90.00
2018-09-06T08:56:20.872Z,90.20
2018-09-06T08:58:51.034Z,90.10
2018-09-06T09:01:26.505Z,90.10
2018-09-06T09:03:58.497Z,90.10
2018-09-06T09:06:28.707Z,90.10
2018-09-06T09:08:58.818Z,90.30
2018-09-06T09:11:28.984Z,90.40
2018-09-06T09:13:59.108Z,90.10
2018-09-06T09:16:29.280Z,90.70
2018-09-06T09:18:59.892Z,90.60
2018-09-06T09:21:30.047Z,90.40
2018-09-06T09:24:01.078Z,90.60
2018-09-06T09:26:31.280Z,90.50
2018-09-06T09:29:01.533Z,90.50
2018-09-06T09:31:32.312Z,90.80
2018-09-06T09:34:03.228Z,90.60
2018-09-06T09:36:34.140Z,90.80
2018-09-06T09:39:05.395Z,90.30
2018-09-06T09:41:35.716Z,90.00
2018-09-06T09:44:05.848Z,89.80
2018-09-06T09:49:06.113Z,89.60
2018-09-06T09:51:36.224Z,89.30
2018-09-06T09:54:07.112Z,89.50
2018-09-06T09:56:37.316Z,87.70
2018-09-06T09:59:07.532Z,87.30
2018-09-06T10:01:43.804Z,88.00
2018-09-06T10:04:19.307Z,88.00
2018-09-06T10:06:54.670Z,87.30
2018-09-06T10:09:25.960Z,88.00
2018-09-06T10:11:56.895Z,88.50
2018-09-06T10:14:27.032Z,86.20
2018-09-06T10:16:57.209Z,85.70
2018-09-06T10:19:27.300Z,86.50
2018-09-06T10:21:57.516Z,86.80
2018-09-06T10:24:28.397Z,87.50
2018-09-06T10:26:58.596Z,86.10
2018-09-06T10:29:29.364Z,86.40
2018-09-06T10:31:59.861Z,86.60
2018-09-06T10:34:30.032Z,85.90
2018-09-06T10:37:00.668Z,85.70
2018-09-06T10:39:31.504Z,84.70
2018-09-06T10:42:01.698Z,85.60
2018-09-06T10:44:31.878Z,84.80
2018-09-06T10:47:02.543Z,85.00
2018-09-06T10:49:33.839Z,84.50
2018-09-06T10:52:10.535Z,84.30
2018-09-06T10:54:40.705Z,83.70
2018-09-06T10:57:11.034Z,84.20
2018-09-06T10:59:41.288Z,84.00
2018-09-06T11:02:11.594Z,85.20
2018-09-06T11:04:42.264Z,84.30
2018-09-06T11:07:12.510Z,84.10
2018-09-06T11:09:42.713Z,83.20
2018-09-06T11:12:12.857Z,84.40
2018-09-06T11:14:43.605Z,84.20
2018-09-06T11:17:15.105Z,83.90
2018-09-06T11:19:45.312Z,83.70
2018-09-06T11:22:15.965Z,84.50
2018-09-06T11:24:47.680Z,84.00
2018-09-06T11:27:18.478Z,82.90
2018-09-06T11:29:50.578Z,83.30
2018-09-06T11:32:21.225Z,79.70
2018-09-06T11:34:51.364Z,82.50
2018-09-06T11:37:21.632Z,80.90
2018-09-06T11:39:51.792Z,80.20
2018-09-06T11:42:21.923Z,81.00
2018-09-06T11:44:52.198Z,79.80
2018-09-06T11:47:23.006Z,80.00
2018-09-06T11:49:53.352Z,78.40
2018-09-06T11:52:23.520Z,76.80
2018-09-06T11:54:53.717Z,75.40
2018-09-06T11:57:24.617Z,75.60
2018-09-06T11:59:54.747Z,76.80
2018-09-06T12:02:25.864Z,73.70
2018-09-06T12:04:56.745Z,74.50
2018-09-06T12:07:26.940Z,74.90
2018-09-06T12:09:57.070Z,75.10
2018-09-06T12:12:27.876Z,74.10
2018-09-06T12:14:58.016Z,74.50
2018-09-06T12:17:28.736Z,73.50
2018-09-06T12:19:58.922Z,75.00
2018-09-06T12:22:30.241Z,74.10
2018-09-06T12:25:00.492Z,74.90
2018-09-06T12:27:31.368Z,74.60
2018-09-06T12:30:01.916Z,75.10
2018-09-06T12:32:32.117Z,76.00
2018-09-06T12:35:03.894Z,75.70
2018-09-06T12:37:34.135Z,75.60
2018-09-06T12:40:04.367Z,75.00
2018-09-06T12:42:34.530Z,76.70
2018-09-06T12:45:04.761Z,77.70
2018-09-06T12:47:35.621Z,76.60
2018-09-06T12:50:05.840Z,75.20
2018-09-06T12:52:36.132Z,76.20
2018-09-06T12:55:06.764Z,75.90
2018-09-06T12:57:36.918Z,75.90
2018-09-06T13:00:08.448Z,77.00
2018-09-06T13:02:39.328Z,77.30
2018-09-06T13:05:09.513Z,76.90
2018-09-06T13:07:40.136Z,76.20
2018-09-06T13:10:11.173Z,75.70
2018-09-06T13:12:42.727Z,74.60
2018-09-06T13:15:13.196Z,75.50
2018-09-06T13:17:43.428Z,75.60
2018-09-06T13:20:13.576Z,75.50
2018-09-06T13:22:43.701Z,77.00
2018-09-06T13:25:14.045Z,77.20
2018-09-06T13:27:45.060Z,77.70
2018-09-06T13:30:15.164Z,77.20
2018-09-06T13:32:45.841Z,76.60
2018-09-06T13:35:16.432Z,74.70
2018-09-06T13:37:47.156Z,76.10
2018-09-06T13:40:17.309Z,75.90
2018-09-06T13:42:47.437Z,74.80
2018-09-06T13:45:18.168Z,76.00
2018-09-06T13:47:48.240Z,75.40
2018-09-06T13:50:18.419Z,76.10
2018-09-06T13:52:49.513Z,74.30
2018-09-06T13:55:20.425Z,74.10
2018-09-06T13:57:50.577Z,73.70
2018-09-06T14:00:22.132Z,75.20
2018-09-06T14:02:52.227Z,73.50
2018-09-06T14:05:22.475Z,73.90
2018-09-06T14:07:53.444Z,73.60
2018-09-06T14:10:24.272Z,73.30
2018-09-06T14:12:54.370Z,72.90
2018-09-06T14:15:24.629Z,73.10
2018-09-06T14:17:55.397Z,73.40
2018-09-06T14:20:25.529Z,73.60
2018-09-06T14:22:55.648Z,73.10
2018-09-06T14:25:25.821Z,73.90
2018-09-06T14:27:56.544Z,72.30
2018-09-06T14:30:26.712Z,72.60
2018-09-06T14:32:56.922Z,72.20
2018-09-06T14:35:27.399Z,72.50
2018-09-06T14:37:58.390Z,72.10
2018-09-06T14:40:29.032Z,72.20
2018-09-06T14:42:59.120Z,73.20
2018-09-06T14:45:30.092Z,72.80
2018-09-06T14:48:00.240Z,73.60
2018-09-06T14:50:30.352Z,73.10
2018-09-06T14:53:01.324Z,73.40
2018-09-06T14:55:31.416Z,72.70
2018-09-06T14:58:02.243Z,74.00
2018-09-06T15:00:32.325Z,74.20
2018-09-06T15:03:02.469Z,74.50
2018-09-06T15:05:32.952Z,74.30
2018-09-06T15:08:03.062Z,74.60
2018-09-06T15:10:33.649Z,73.30
2018-09-06T15:13:04.520Z,74.10
2018-09-06T15:15:35.416Z,74.40
2018-09-06T15:18:05.702Z,73.70
2018-09-06T15:20:36.988Z,74.40
2018-09-06T15:23:08.540Z,74.90
2018-09-06T15:25:39.864Z,74.50
2018-09-06T15:28:10.089Z,74.40
2018-09-06T15:30:41.676Z,75.10
2018-09-06T15:33:11.765Z,75.40
2018-09-06T15:35:41.894Z,76.10
2018-09-06T15:38:12.543Z,75.60
2018-09-06T15:40:42.706Z,75.60
2018-09-06T15:43:12.800Z,76.10
2018-09-06T15:45:42.892Z,76.60
2018-09-06T15:48:13.017Z,76.80
2018-09-06T15:50:43.136Z,77.00
2018-09-06T15:53:13.878Z,77.10
2018-09-06T15:55:44.071Z,77.70
2018-09-06T15:58:14.843Z,77.50
2018-09-06T16:00:45.744Z,78.10
2018-09-06T16:03:15.888Z,78.40
2018-09-06T16:05:46.689Z,78.60
2018-09-06T16:08:16.787Z,78.80
2018-09-06T16:10:47.015Z,78.90
2018-09-06T16:13:17.619Z,79.30
2018-09-06T16:15:47.823Z,79.70
2018-09-06T16:18:18.073Z,79.70
2018-09-06T16:20:48.204Z,80.00
2018-09-06T16:23:18.380Z,80.20
2018-09-06T16:25:48.703Z,80.50
2018-09-06T16:28:18.820Z,80.60
2018-09-06T16:30:48.908Z,80.90
2018-09-06T16:33:19.020Z,81.40
2018-09-06T16:35:49.214Z,81.60
2018-09-06T16:38:19.309Z,81.80
2018-09-06T16:40:49.457Z,82.10
2018-09-06T16:43:19.585Z,82.40
2018-09-06T16:45:50.429Z,82.20
2018-09-06T16:48:20.563Z,82.20
2018-09-06T16:50:50.708Z,83.10
2018-09-06T16:53:21.259Z,83.30
2018-09-06T16:55:51.385Z,83.30
2018-09-06T16:58:22.197Z,83.80
2018-09-06T17:00:54.086Z,83.70
2018-09-06T17:03:24.148Z,84.10
2018-09-06T17:05:55.188Z,84.60
2018-09-06T17:08:25.306Z,84.90
2018-09-06T17:10:56.256Z,84.70
2018-09-06T17:13:26.976Z,84.70
2018-09-06T17:15:57.080Z,85.20
2018-09-06T17:18:27.179Z,85.10
2018-09-06T17:20:57.748Z,85.30
2018-09-06T17:23:28.031Z,85.50
2018-09-06T17:25:59.544Z,86.10
2018-09-06T17:28:29.917Z,85.80
2018-09-06T17:31:00.049Z,86.10
2018-09-06T17:33:31.145Z,86.10
2018-09-06T17:36:02.305Z,86.40
2018-09-06T17:38:33.099Z,86.10
2018-09-06T17:41:03.117Z,86.40
2018-09-06T17:43:33.129Z,86.50
2018-09-06T17:46:03.298Z,86.60
2018-09-06T17:48:33.808Z,86.90
2018-09-06T17:51:03.901Z,87.20
2018-09-06T17:53:34.668Z,87.20
2018-09-06T17:56:05.534Z,87.90
2018-09-06T17:58:36.268Z,88.20
2018-09-06T18:01:15.306Z,88.10
2018-09-06T18:03:46.200Z,88.10
2018-09-06T18:06:16.589Z,88.80
2018-09-06T18:08:46.744Z,88.30
2018-09-06T18:11:16.932Z,89.10
2018-09-06T18:13:47.067Z,89.10
2018-09-06T18:16:17.129Z,89.10
2018-09-06T18:18:47.305Z,89.10
2018-09-06T18:21:17.408Z,89.10
2018-09-06T18:23:47.529Z,89.40
2018-09-06T18:26:17.748Z,89.70
2018-09-06T18:28:47.837Z,89.50
2018-09-06T18:31:18.016Z,89.70
2018-09-06T18:33:48.190Z,90.00
2018-09-06T18:36:18.369Z,90.10
2018-09-06T18:38:49.069Z,90.20
2018-09-06T18:41:19.213Z,90.20
2018-09-06T18:43:49.283Z,90.90
2018-09-06T18:46:19.585Z,90.40
2018-09-06T18:48:49.648Z,90.30
2018-09-06T18:51:19.764Z,90.40
2018-09-06T18:53:49.932Z,90.30
2018-09-06T18:56:20.049Z,90.40
2018-09-06T18:58:50.144Z,90.50
2018-09-06T19:01:20.572Z,90.60
2018-09-06T19:03:50.660Z,90.50
2018-09-06T19:06:20.773Z,90.60
2018-09-06T19:08:50.845Z,90.50
2018-09-06T19:11:21.588Z,90.70
2018-09-06T19:13:51.686Z,90.80
2018-09-06T19:16:21.793Z,91.00
2018-09-06T19:18:52.016Z,91.10
2018-09-06T19:21:22.109Z,91.30
2018-09-06T19:23:52.204Z,91.60
2018-09-06T19:26:22.344Z,91.50
2018-09-06T19:28:52.349Z,91.40
2018-09-06T19:31:23.025Z,91.60
2018-09-06T19:33:53.165Z,91.60
2018-09-06T19:36:23.849Z,91.40
2018-09-06T19:38:53.933Z,91.40
2018-09-06T19:41:24.033Z,91.30
2018-09-06T19:43:54.105Z,91.30
2018-09-06T19:46:24.788Z,91.60
2018-09-06T19:48:55.493Z,91.50
2018-09-06T19:51:25.600Z,91.50
2018-09-06T19:53:55.740Z,91.40
2018-09-06T19:56:25.829Z,91.30
2018-09-06T19:58:55.901Z,91.40
2018-09-06T20:01:26.308Z,91.40
2018-09-06T20:03:56.392Z,91.40
2018-09-06T20:06:26.436Z,91.40
2018-09-06T20:08:56.536Z,91.50
2018-09-06T20:11:26.600Z,91.60
2018-09-06T20:13:57.076Z,91.60
2018-09-06T20:16:27.060Z,91.50
2018-09-06T20:18:57.164Z,91.90
2018-09-06T20:21:27.240Z,92.20
2018-09-06T20:23:57.354Z,92.00
2018-09-06T20:26:27.414Z,92.30
2018-09-06T20:28:57.812Z,92.70
2018-09-06T20:31:27.876Z,92.60
2018-09-06T20:33:57.974Z,92.60
2018-09-06T20:36:28.048Z,92.70
2018-09-06T20:38:58.232Z,92.80
2018-09-06T20:41:28.320Z,92.90
2018-09-06T20:43:58.456Z,93.30
2018-09-06T20:46:28.548Z,93.00
2018-09-06T20:48:58.628Z,93.10
2018-09-06T20:51:29.105Z,93.00
2018-09-06T20:53:59.320Z,93.00
2018-09-06T20:56:29.476Z,93.10
2018-09-06T20:58:59.542Z,93.30
2018-09-06T21:01:30.204Z,93.10
2018-09-06T21:04:00.293Z,93.00
2018-09-06T21:06:30.412Z,93.40
2018-09-06T21:09:00.509Z,93.20
2018-09-06T21:11:30.607Z,93.10
2018-09-06T21:14:00.728Z,93.30
2018-09-06T21:16:30.892Z,93.10
2018-09-06T21:19:00.988Z,92.90
2018-09-06T21:21:31.783Z,92.80
2018-09-06T21:24:01.872Z,93.00
2018-09-06T21:26:31.948Z,93.30
2018-09-06T21:29:02.040Z,93.10
2018-09-06T21:31:32.129Z,93.30
2018-09-06T21:34:02.557Z,93.30
2018-09-06T21:36:33.544Z,93.20
2018-09-06T21:39:04.552Z,93.20
2018-09-06T21:41:35.200Z,93.30
2018-09-06T21:44:05.524Z,93.20
2018-09-06T21:46:35.657Z,93.30
2018-09-06T21:49:05.994Z,93.30
2018-09-06T21:51:36.062Z,93.60
2018-09-06T21:54:07.357Z,93.60
2018-09-06T21:56:37.904Z,93.30
2018-09-06T21:59:07.994Z,93.40
2018-09-06T22:01:38.265Z,93.60
2018-09-06T22:04:09.280Z,93.40
2018-09-06T22:06:39.771Z,93.60
2018-09-06T22:09:12.060Z,93.30
2018-09-06T22:11:42.188Z,93.50
2018-09-06T22:14:12.268Z,93.50
2018-09-06T22:16:42.536Z,93.20
2018-09-06T22:19:12.673Z,93.30
2018-09-06T22:21:42.792Z,93.10
2018-09-06T22:24:13.633Z,93.30
2018-09-06T22:26:43.728Z,93.40
2018-09-06T22:29:13.759Z,93.20
2018-09-06T22:31:44.409Z,93.30
2018-09-06T22:34:15.208Z,93.40
2018-09-06T22:36:45.821Z,93.30
2018-09-06T22:39:15.904Z,93.50
2018-09-06T22:41:45.965Z,93.50
2018-09-06T22:44:16.660Z,93.70
2018-09-06T22:46:46.750Z,93.90
2018-09-06T22:49:16.853Z,93.90
2018-09-06T22:51:46.976Z,93.90
2018-09-06T22:54:17.088Z,94.30
2018-09-06T22:56:47.251Z,94.20
2018-09-06T22:59:17.370Z,94.10
2018-09-06T23:01:47.956Z,94.00
2018-09-06T23:04:18.030Z,94.10
2018-09-06T23:06:48.133Z,94.30
2018-09-06T23:09:18.200Z,94.10
2018-09-06T23:11:48.256Z,94.20
2018-09-06T23:14:18.333Z,94.20
2018-09-06T23:16:48.473Z,94.30
2018-09-06T23:19:18.497Z,94.50
2018-09-06T23:21:48.632Z,94.40
2018-09-06T23:24:18.696Z,94.50
2018-09-06T23:26:48.783Z,94.60
2018-09-06T23:29:19.374Z,94.40
2018-09-06T23:31:50.420Z,94.30
2018-09-06T23:34:20.495Z,94.40
2018-09-06T23:36:50.571Z,94.40
2018-09-06T23:39:20.608Z,94.30
2018-09-06T23:41:50.680Z,94.40
2018-09-06T23:44:20.787Z,94.50
2018-09-06T23:46:51.587Z,94.60
2018-09-06T23:49:21.664Z,94.40
2018-09-06T23:51:51.725Z,94.30
2018-09-06T23:54:22.932Z,94.30
2018-09-06T23:56:53.055Z,94.40
2018-09-06T23:59:23.849Z,94.30
